createdAt,value
2023-04-18T00:01:32.136Z,19.23
2023-04-18T00:04:35.196Z,19.23
2023-04-18T00:07:38.042Z,19.26
2023-04-18T00:10:42.392Z,19.19
2023-04-18T00:13:47.551Z,19.15
2023-04-18T00:16:50.395Z,19.12
2023-04-18T00:19:53.386Z,19.16
2023-04-18T00:22:56.224Z,19.22
2023-04-18T00:26:00.330Z,19.21
2023-04-18T00:29:03.619Z,19.29
2023-04-18T00:32:06.556Z,19.29
2023-04-18T00:35:10.405Z,19.28
2023-04-18T00:38:13.162Z,19.29
2023-04-18T00:41:17.337Z,19.29
2023-04-18T00:44:20.058Z,19.32
2023-04-18T00:47:22.969Z,19.31
2023-04-18T00:50:25.891Z,19.28
2023-04-18T00:53:28.918Z,19.25
2023-04-18T00:56:33.209Z,19.28
2023-04-18T00:59:36.176Z,19.29
2023-04-18T01:02:39.833Z,19.23
2023-04-18T01:05:42.795Z,19.27
2023-04-18T01:08:46.142Z,19.23
2023-04-18T01:11:50.325Z,19.20
2023-04-18T01:14:53.052Z,19.20
2023-04-18T01:17:55.905Z,19.13
2023-04-18T01:21:00.412Z,19.21
2023-04-18T01:24:10.305Z,19.22
2023-04-18T01:27:13.587Z,19.23
2023-04-18T01:30:16.396Z,19.21
2023-04-18T01:33:19.219Z,19.26
2023-04-18T01:36:22.060Z,19.25
2023-04-18T01:39:26.271Z,19.23
2023-04-18T01:42:29.177Z,19.20
2023-04-18T01:45:32.027Z,19.20
2023-04-18T01:48:34.784Z,19.22
2023-04-18T01:51:38.939Z,19.21
2023-04-18T01:54:44.132Z,19.18
2023-04-18T01:57:47.060Z,19.17
2023-04-18T02:00:49.839Z,19.15
2023-04-18T02:03:53.008Z,19.24
2023-04-18T02:06:56.047Z,19.20
2023-04-18T02:10:00.216Z,19.17
2023-04-18T02:13:03.001Z,19.21
2023-04-18T02:16:06.213Z,19.16
2023-04-18T02:19:09.238Z,19.10
2023-04-18T02:22:11.995Z,19.13
2023-04-18T02:25:16.177Z,19.16
2023-04-18T02:28:19.042Z,19.09
2023-04-18T02:31:21.837Z,19.05
2023-04-18T02:34:24.685Z,19.02
2023-04-18T02:37:27.495Z,19.06
2023-04-18T02:40:31.736Z,18.93
2023-04-18T02:43:34.678Z,18.97
2023-04-18T02:46:37.466Z,19.04
2023-04-18T02:49:40.300Z,18.98
2023-04-18T02:52:43.985Z,18.92
2023-04-18T02:55:48.128Z,18.90
2023-04-18T02:58:50.926Z,19.04
2023-04-18T03:01:53.823Z,19.05
2023-04-18T03:04:57.057Z,18.99
2023-04-18T03:07:59.795Z,19.03
2023-04-18T03:11:03.982Z,19.08
2023-04-18T03:14:06.724Z,18.97
2023-04-18T03:17:09.598Z,19.04
2023-04-18T03:20:12.887Z,19.05
2023-04-18T03:23:15.973Z,19.08
2023-04-18T03:26:20.222Z,19.03
2023-04-18T03:29:23.050Z,19.07
2023-04-18T03:32:25.956Z,19.03
2023-04-18T03:35:28.736Z,19.09
2023-04-18T03:38:31.928Z,19.06
2023-04-18T03:41:36.105Z,19.06
2023-04-18T03:44:38.939Z,19.05
2023-04-18T03:47:41.760Z,19.08
2023-04-18T03:50:44.924Z,19.04
2023-04-18T03:53:47.698Z,19.07
2023-04-18T03:56:51.898Z,19.07
2023-04-18T03:59:54.710Z,19.06
2023-04-18T04:02:57.729Z,19.10
2023-04-18T04:06:01.050Z,19.10
2023-04-18T04:09:04.123Z,19.11
2023-04-18T04:12:08.421Z,19.09
2023-04-18T04:15:11.988Z,19.10
2023-04-18T04:18:14.820Z,19.10
2023-04-18T04:21:18.905Z,19.08
2023-04-18T04:24:24.471Z,19.10
2023-04-18T04:27:28.641Z,19.11
2023-04-18T04:30:34.706Z,19.10
2023-04-18T04:33:38.956Z,19.09
2023-04-18T04:36:43.187Z,19.07
2023-04-18T04:39:46.268Z,19.03
2023-04-18T04:42:54.081Z,19.08
2023-04-18T04:45:57.838Z,19.05
2023-04-18T04:49:00.958Z,19.04
2023-04-18T04:52:03.999Z,19.05
2023-04-18T04:55:07.229Z,19.15
2023-04-18T04:58:11.413Z,19.20
2023-04-18T05:01:14.216Z,19.06
2023-04-18T05:04:17.335Z,19.07
2023-04-18T05:07:20.470Z,19.05
2023-04-18T05:10:24.069Z,19.10
2023-04-18T05:13:28.256Z,19.06
2023-04-18T05:16:31.682Z,19.07
2023-04-18T05:19:34.515Z,19.06
2023-04-18T05:22:37.383Z,19.06
2023-04-18T05:25:40.217Z,19.07
2023-04-18T05:28:44.405Z,19.04
2023-04-18T05:31:47.168Z,19.06
2023-04-18T05:34:50.104Z,19.04
2023-04-18T05:37:52.817Z,19.09
2023-04-18T05:40:56.097Z,19.08
2023-04-18T05:44:05.308Z,19.10
2023-04-18T05:47:08.772Z,19.12
2023-04-18T05:50:11.621Z,19.14
2023-04-18T05:53:14.376Z,19.10
2023-04-18T05:56:17.131Z,19.13
2023-04-18T05:59:21.774Z,19.11
2023-04-18T06:02:24.850Z,19.15
2023-04-18T06:05:28.069Z,19.15
2023-04-18T06:08:30.982Z,19.13
2023-04-18T06:11:35.777Z,19.12
2023-04-18T06:14:39.996Z,19.15
2023-04-18T06:17:42.866Z,19.21
2023-04-18T06:20:45.689Z,19.22
2023-04-18T06:23:48.465Z,19.23
2023-04-18T06:26:51.262Z,19.23
2023-04-18T06:29:55.440Z,19.27
2023-04-18T06:32:58.284Z,19.24
2023-04-18T06:36:01.116Z,19.25
2023-04-18T06:39:03.987Z,19.23
2023-04-18T06:42:06.867Z,19.22
2023-04-18T06:45:12.166Z,19.26
2023-04-18T06:48:15.087Z,19.26
2023-04-18T06:51:17.812Z,19.24
2023-04-18T06:54:20.655Z,19.27
2023-04-18T06:57:23.444Z,19.25
2023-04-18T07:00:27.763Z,19.21
2023-04-18T07:03:30.729Z,19.27
2023-04-18T07:06:33.843Z,19.23
2023-04-18T07:09:36.639Z,19.29
2023-04-18T07:12:39.407Z,19.29
2023-04-18T07:15:43.573Z,19.31
2023-04-18T07:18:46.415Z,19.34
2023-04-18T07:21:49.180Z,19.35
2023-04-18T07:24:51.973Z,19.38
2023-04-18T07:27:54.768Z,19.42
2023-04-18T07:30:59.298Z,19.45
2023-04-18T07:34:02.096Z,19.47
2023-04-18T07:37:04.886Z,19.48
2023-04-18T07:40:08.554Z,19.50
2023-04-18T07:43:11.369Z,19.52
2023-04-18T07:46:15.694Z,19.54
2023-04-18T07:49:18.488Z,19.52
2023-04-18T07:52:21.295Z,19.56
2023-04-18T07:55:24.084Z,19.53
2023-04-18T07:58:26.832Z,19.53
2023-04-18T08:01:31.141Z,19.58
2023-04-18T08:04:34.252Z,19.59
2023-04-18T08:07:37.312Z,19.56
2023-04-18T08:10:40.507Z,19.59
2023-04-18T08:13:43.305Z,19.57
2023-04-18T08:16:47.515Z,19.55
2023-04-18T08:19:50.335Z,19.57
2023-04-18T08:23:05.623Z,19.57
2023-04-18T08:26:11.708Z,19.57
2023-04-18T08:29:14.740Z,19.49
2023-04-18T08:32:19.135Z,19.52
2023-04-18T08:35:22.142Z,19.58
2023-04-18T08:38:24.906Z,19.63
2023-04-18T08:41:28.824Z,19.63
2023-04-18T08:44:32.837Z,19.66
2023-04-18T08:47:37.226Z,19.65
2023-04-18T08:50:39.984Z,19.64
2023-04-18T08:53:44.830Z,19.64
2023-04-18T08:56:47.906Z,19.67
2023-04-18T08:59:51.161Z,19.68
2023-04-18T09:02:57.161Z,19.71
2023-04-18T09:06:08.438Z,19.72
2023-04-18T09:09:11.512Z,19.73
2023-04-18T09:12:15.478Z,19.73
2023-04-18T09:15:20.313Z,19.76
2023-04-18T09:18:24.678Z,19.76
2023-04-18T09:21:28.034Z,19.78
2023-04-18T09:24:32.115Z,19.73
2023-04-18T09:27:35.981Z,19.75
2023-04-18T09:30:39.734Z,19.71
2023-04-18T09:33:52.864Z,19.73
2023-04-18T09:37:08.835Z,19.75
2023-04-18T09:40:17.384Z,19.73
2023-04-18T09:43:20.586Z,19.73
2023-04-18T09:46:23.541Z,19.85
2023-04-18T09:49:28.143Z,19.89
2023-04-18T09:52:33.418Z,19.90
2023-04-18T09:55:36.568Z,19.91
2023-04-18T09:58:42.345Z,19.91
2023-04-18T10:01:48.492Z,19.98
2023-04-18T10:04:53.492Z,19.96
2023-04-18T10:07:56.778Z,19.97
2023-04-18T10:10:59.709Z,19.95
2023-04-18T10:14:04.496Z,19.95
2023-04-18T10:17:07.459Z,19.92
2023-04-18T10:20:17.486Z,19.97
2023-04-18T10:23:36.529Z,19.97
2023-04-18T10:26:47.598Z,20.07
2023-04-18T10:29:51.082Z,19.98
2023-04-18T10:32:56.217Z,19.97
2023-04-18T10:36:01.669Z,19.97
2023-04-18T10:39:23.270Z,19.99
2023-04-18T10:42:47.187Z,20.01
2023-04-18T10:46:23.766Z,19.99
2023-04-18T10:49:33.893Z,20.00
2023-04-18T10:52:38.217Z,19.77
2023-04-18T10:55:44.740Z,19.67
2023-04-18T10:58:51.080Z,19.88
2023-04-18T11:01:56.458Z,19.59
2023-04-18T11:05:00.000Z,19.89
2023-04-18T11:08:04.667Z,19.93
2023-04-18T11:11:09.642Z,19.96
2023-04-18T11:14:12.753Z,19.97
2023-04-18T11:17:22.091Z,19.99
2023-04-18T11:20:24.880Z,19.98
2023-04-18T11:23:28.987Z,19.99
2023-04-18T11:26:31.760Z,19.97
2023-04-18T11:29:34.522Z,20.04
2023-04-18T11:32:37.387Z,20.06
2023-04-18T11:35:40.804Z,20.02
2023-04-18T11:38:45.002Z,20.05
2023-04-18T11:41:51.147Z,20.06
2023-04-18T11:44:53.929Z,20.10
2023-04-18T11:47:57.191Z,20.12
2023-04-18T11:50:59.957Z,20.14
2023-04-18T11:54:04.319Z,20.13
2023-04-18T11:57:07.699Z,20.12
2023-04-18T12:00:12.769Z,20.14
2023-04-18T12:03:16.817Z,20.15
2023-04-18T12:06:19.904Z,20.15
2023-04-18T12:09:26.248Z,20.11
2023-04-18T12:12:29.039Z,20.13
2023-04-18T12:15:32.077Z,20.15
2023-04-18T12:18:35.088Z,20.11
2023-04-18T12:21:37.893Z,20.12
2023-04-18T12:24:42.025Z,20.13
2023-04-18T12:27:57.989Z,20.14
2023-04-18T12:31:00.876Z,20.18
2023-04-18T12:34:03.693Z,20.20
2023-04-18T12:37:06.451Z,20.17
2023-04-18T12:40:13.586Z,20.19
2023-04-18T12:43:16.653Z,20.21
2023-04-18T12:46:19.508Z,20.21
2023-04-18T12:49:22.296Z,20.16
2023-04-18T12:52:25.124Z,20.22
2023-04-18T12:55:29.416Z,20.23
2023-04-18T12:58:32.219Z,20.23
2023-04-18T13:01:35.036Z,20.24
2023-04-18T13:04:38.077Z,20.24
2023-04-18T13:07:42.551Z,20.21
2023-04-18T13:10:47.591Z,20.24
2023-04-18T13:13:50.545Z,20.31
2023-04-18T13:16:53.361Z,20.28
2023-04-18T13:19:56.333Z,20.35
2023-04-18T13:22:59.200Z,20.30
2023-04-18T13:26:03.449Z,20.29
2023-04-18T13:29:06.297Z,20.29
2023-04-18T13:32:09.456Z,20.32
2023-04-18T13:35:12.361Z,20.30
2023-04-18T13:38:15.563Z,20.28
2023-04-18T13:41:19.645Z,20.32
2023-04-18T13:44:22.433Z,20.30
2023-04-18T13:47:25.250Z,20.26
2023-04-18T13:50:28.109Z,20.31
2023-04-18T13:53:31.343Z,20.27
2023-04-18T13:56:35.557Z,20.28
2023-04-18T13:59:38.687Z,20.27
2023-04-18T14:02:41.801Z,20.32
2023-04-18T14:05:44.681Z,20.31
2023-04-18T14:08:47.477Z,20.33
2023-04-18T14:11:51.814Z,20.30
2023-04-18T14:15:06.821Z,20.33
2023-04-18T14:18:09.604Z,20.31
2023-04-18T14:21:12.463Z,20.26
2023-04-18T14:24:15.375Z,20.29
2023-04-18T14:27:19.513Z,20.36
2023-04-18T14:30:22.858Z,20.29
2023-04-18T14:33:26.273Z,20.25
2023-04-18T14:36:29.069Z,20.29
2023-04-18T14:39:32.295Z,20.31
2023-04-18T14:42:36.526Z,20.26
2023-04-18T14:45:39.370Z,20.30
2023-04-18T14:48:42.116Z,20.29
2023-04-18T14:51:44.931Z,20.29
2023-04-18T14:54:47.700Z,20.26
2023-04-18T14:57:51.767Z,20.29
2023-04-18T15:00:54.498Z,20.32
2023-04-18T15:03:57.530Z,20.30
2023-04-18T15:07:00.740Z,19.86
2023-04-18T15:10:03.902Z,19.77
2023-04-18T15:13:08.094Z,19.76
2023-04-18T15:16:11.002Z,19.70
2023-04-18T15:19:13.775Z,19.67
2023-04-18T15:22:16.604Z,19.70
2023-04-18T15:25:19.367Z,19.68
2023-04-18T15:28:23.585Z,19.63
2023-04-18T15:31:27.664Z,19.54
2023-04-18T15:34:30.483Z,19.61
2023-04-18T15:37:33.316Z,19.60
2023-04-18T15:40:36.638Z,19.54
2023-04-18T15:43:41.860Z,20.05
2023-04-18T15:46:44.619Z,20.18
2023-04-18T15:49:47.388Z,20.29
2023-04-18T15:52:50.222Z,20.35
2023-04-18T15:55:53.876Z,20.27
2023-04-18T15:58:58.108Z,20.21
2023-04-18T16:02:02.384Z,20.29
2023-04-18T16:05:05.665Z,20.27
2023-04-18T16:08:09.046Z,20.27
2023-04-18T16:11:11.860Z,20.30
2023-04-18T16:14:14.928Z,20.27
2023-04-18T16:17:19.375Z,20.30
2023-04-18T16:20:22.174Z,20.29
2023-04-18T16:23:24.942Z,20.26
2023-04-18T16:26:28.949Z,20.28
2023-04-18T16:29:31.740Z,20.26
2023-04-18T16:32:35.898Z,20.25
2023-04-18T16:35:38.798Z,20.24
2023-04-18T16:38:41.529Z,20.25
2023-04-18T16:41:44.322Z,20.29
2023-04-18T16:44:47.397Z,20.31
2023-04-18T16:47:51.673Z,20.31
2023-04-18T16:50:54.494Z,20.31
2023-04-18T16:53:59.921Z,20.31
2023-04-18T16:57:02.910Z,20.27
2023-04-18T17:00:06.849Z,20.30
2023-04-18T17:03:11.103Z,20.23
2023-04-18T17:06:13.890Z,20.23
2023-04-18T17:09:16.832Z,20.21
2023-04-18T17:12:19.700Z,20.32
2023-04-18T17:15:22.510Z,20.25
2023-04-18T17:18:26.716Z,20.28
2023-04-18T17:21:29.459Z,20.26
2023-04-18T17:24:32.252Z,20.23
2023-04-18T17:27:35.059Z,20.27
2023-04-18T17:30:40.636Z,20.25
2023-04-18T17:33:45.135Z,20.24
2023-04-18T17:36:47.919Z,20.22
2023-04-18T17:39:50.763Z,20.22
2023-04-18T17:42:53.568Z,20.19
2023-04-18T17:45:56.980Z,20.20
2023-04-18T17:49:01.225Z,20.18
2023-04-18T17:52:04.402Z,20.18
2023-04-18T17:55:10.168Z,20.16
2023-04-18T17:58:12.962Z,20.18
2023-04-18T18:01:16.179Z,20.20
2023-04-18T18:04:22.389Z,20.17
2023-04-18T18:07:26.592Z,20.15
2023-04-18T18:10:29.829Z,20.18
2023-04-18T18:13:32.644Z,20.19
2023-04-18T18:16:40.590Z,20.18
2023-04-18T18:19:44.759Z,20.13
2023-04-18T18:22:47.525Z,20.18
2023-04-18T18:25:50.832Z,20.20
2023-04-18T18:28:53.722Z,20.17
2023-04-18T18:31:56.474Z,20.17
2023-04-18T18:35:01.851Z,20.14
2023-04-18T18:38:04.670Z,20.22
2023-04-18T18:41:07.919Z,20.23
2023-04-18T18:44:11.630Z,20.22
2023-04-18T18:47:14.424Z,20.23
2023-04-18T18:50:18.667Z,20.18
2023-04-18T18:53:21.413Z,20.22
2023-04-18T18:56:24.445Z,20.21
2023-04-18T18:59:27.205Z,20.20
2023-04-18T19:02:31.969Z,20.18
2023-04-18T19:05:36.269Z,20.17
2023-04-18T19:08:39.053Z,20.17
2023-04-18T19:11:41.866Z,20.16
2023-04-18T19:14:44.861Z,20.17
2023-04-18T19:17:47.648Z,20.17
2023-04-18T19:20:51.873Z,20.20
2023-04-18T19:23:54.637Z,20.20
2023-04-18T19:26:57.382Z,20.20
2023-04-18T19:30:00.241Z,20.21
2023-04-18T19:33:03.021Z,20.21
2023-04-18T19:36:07.430Z,20.20
2023-04-18T19:39:10.199Z,20.17
2023-04-18T19:42:13.032Z,20.22
2023-04-18T19:45:16.145Z,20.21
2023-04-18T19:48:18.936Z,20.22
2023-04-18T19:51:23.205Z,20.19
2023-04-18T19:54:25.981Z,20.18
2023-04-18T19:57:29.044Z,20.14
2023-04-18T20:00:31.887Z,20.16
2023-04-18T20:03:35.092Z,20.19
2023-04-18T20:06:39.404Z,20.20
2023-04-18T20:09:43.388Z,20.18
2023-04-18T20:12:48.205Z,20.13
2023-04-18T20:15:53.038Z,20.13
2023-04-18T20:18:55.933Z,20.12
2023-04-18T20:22:00.182Z,20.09
2023-04-18T20:25:02.932Z,20.11
2023-04-18T20:28:06.434Z,20.14
2023-04-18T20:31:09.273Z,20.08
2023-04-18T20:34:12.130Z,20.05
2023-04-18T20:37:19.867Z,20.08
2023-04-18T20:40:22.928Z,20.09
2023-04-18T20:43:25.955Z,20.03
2023-04-18T20:46:28.863Z,20.04
2023-04-18T20:49:31.663Z,20.02
2023-04-18T20:52:35.865Z,19.99
2023-04-18T20:55:38.599Z,20.02
2023-04-18T20:58:41.968Z,19.99
2023-04-18T21:01:47.580Z,20.02
2023-04-18T21:04:50.485Z,20.02
2023-04-18T21:07:54.722Z,20.00
2023-04-18T21:10:57.463Z,20.08
2023-04-18T21:14:00.222Z,20.04
2023-04-18T21:17:02.995Z,20.04
2023-04-18T21:20:06.396Z,20.03
2023-04-18T21:23:10.667Z,20.01
2023-04-18T21:26:13.896Z,20.06
2023-04-18T21:29:17.644Z,19.97
2023-04-18T21:32:21.160Z,20.02
2023-04-18T21:35:24.948Z,19.99
2023-04-18T21:38:29.317Z,19.97
2023-04-18T21:41:32.604Z,19.89
2023-04-18T21:44:35.710Z,19.92
2023-04-18T21:47:38.550Z,19.95
2023-04-18T21:50:43.098Z,19.92
2023-04-18T21:53:47.251Z,19.96
2023-04-18T21:56:50.047Z,19.94
2023-04-18T21:59:52.768Z,20.03
2023-04-18T22:02:55.705Z,20.01
2023-04-18T22:05:58.580Z,19.97
2023-04-18T22:09:02.707Z,20.04
2023-04-18T22:12:05.858Z,20.00
2023-04-18T22:15:09.105Z,20.03
2023-04-18T22:18:14.376Z,20.01
2023-04-18T22:21:17.335Z,20.03
2023-04-18T22:24:22.071Z,19.98
2023-04-18T22:27:24.819Z,19.97
2023-04-18T22:30:27.666Z,19.98
2023-04-18T22:33:30.415Z,20.04
2023-04-18T22:36:34.242Z,19.99
2023-04-18T22:39:38.348Z,19.98
2023-04-18T22:42:41.127Z,20.02
2023-04-18T22:45:43.965Z,19.98
2023-04-18T22:48:46.875Z,19.91
2023-04-18T22:51:49.728Z,19.90
2023-04-18T22:54:54.084Z,19.90
2023-04-18T22:57:57.210Z,19.89
2023-04-18T23:01:00.795Z,19.83
2023-04-18T23:04:03.737Z,19.89
2023-04-18T23:07:07.806Z,19.83
2023-04-18T23:10:12.482Z,19.82
2023-04-18T23:13:15.402Z,19.84
2023-04-18T23:16:18.153Z,19.85
2023-04-18T23:19:22.974Z,19.82
2023-04-18T23:22:25.799Z,19.99
2023-04-18T23:25:29.913Z,19.93
2023-04-18T23:28:32.670Z,19.94
2023-04-18T23:31:35.535Z,19.94
2023-04-18T23:34:38.321Z,19.88
2023-04-18T23:37:42.253Z,19.92
2023-04-18T23:40:46.385Z,19.91
2023-04-18T23:43:49.153Z,19.92
2023-04-18T23:46:51.984Z,19.91
2023-04-18T23:49:54.827Z,19.90
2023-04-18T23:52:57.628Z,19.83
2023-04-18T23:56:01.788Z,19.82
2023-04-18T23:59:04.636Z,19.84
